Time;durP1;ratioP1;P1;durP2;ratioP2;P2;SDS_P1;SDS_P2;PMS_P1;PMS_P2;Temp;Humidity;BMP_temperature;BMP_pressure;BME280_temperature;BME280_humidity;BME280_pressure;Samples;Min_cycle;Max_cycle;Signal;HPM_P1;HPM_P2
2024/01/16 00:01:59;;;;;;;;;;;;;;;-1.13;100.00;100880.13;4956868;29;20046;-88
2024/01/16 00:04:26;;;;;;;2.40;2.17;;;;;;;-1.20;100.00;100862.91;4956128;29;20375;-89
2024/01/16 00:06:52;;;;;;;2.38;2.15;;;;;;;-1.14;100.00;100883.50;4955512;28;20035;-89
2024/01/16 00:09:20;;;;;;;2.75;2.05;;;;;;;-1.13;100.00;100876.69;4956224;29;20055;-89
2024/01/16 00:11:46;;;;;;;3.30;2.22;;;;;;;-1.16;100.00;100869.84;4955242;29;20400;-88
2024/01/16 00:14:11;;;;;;;3.65;2.10;;;;;;;-1.16;100.00;100874.94;4955680;29;20038;-89
2024/01/16 00:16:47;;;;;;;2.30;2.10;;;;;;;-1.09;100.00;100883.66;4956020;29;20034;-89
2024/01/16 00:19:13;;;;;;;2.30;2.10;;;;;;;-1.09;100.00;100870.91;4955641;29;20106;-89
2024/01/16 00:21:47;;;;;;;2.08;1.95;;;;;;;-1.05;100.00;100884.59;4956846;29;20106;-89
2024/01/16 00:24:16;;;;;;;3.20;2.22;;;;;;;-1.05;100.00;100884.59;4957280;29;20028;-89
2024/01/16 00:26:41;;;;;;;2.15;1.95;;;;;;;-1.05;100.00;100887.16;4955238;29;20062;-89
2024/01/16 00:29:07;;;;;;;4.00;2.00;;;;;;;-1.05;100.00;100882.91;4955784;28;20121;-90
2024/01/16 00:31:32;;;;;;;2.30;2.10;;;;;;;-1.13;100.00;100871.59;4955684;29;20476;-88
2024/01/16 00:33:57;;;;;;;2.55;1.90;;;;;;;-1.01;100.00;100892.41;4955835;29;20036;-89
2024/01/16 00:36:22;;;;;;;2.35;2.15;;;;;;;-0.99;100.00;100894.97;4955747;29;20035;-88
2024/01/16 00:38:48;;;;;;;4.50;2.67;;;;;;;-0.97;100.00;100904.44;4955155;29;20027;-89
2024/01/16 00:41:14;;;;;;;4.97;2.75;;;;;;;-0.97;100.00;100904.44;4955429;29;20027;-90
2024/01/16 00:43:43;;;;;;;5.82;2.97;;;;;;;-0.97;100.00;100880.63;4955777;28;20040;-90
2024/01/16 00:46:09;;;;;;;6.60;2.92;;;;;;;-1.02;100.00;100870.28;4955501;29;20109;-89
2024/01/16 00:48:34;;;;;;;5.63;2.70;;;;;;;-0.98;100.00;100882.31;4954994;29;20058;-89
2024/01/16 00:51:00;;;;;;;4.05;2.55;;;;;;;-0.96;100.00;100890.00;4955500;29;20047;-88
2024/01/16 00:53:26;;;;;;;5.20;2.40;;;;;;;-1.00;100.00;100881.38;4955669;29;20036;-88
2024/01/16 00:55:54;;;;;;;2.58;2.20;;;;;;;-0.98;100.00;100883.97;4955280;29;20062;-89
2024/01/16 00:58:19;;;;;;;2.53;2.00;;;;;;;-0.98;100.00;100889.97;4969295;23;20014;-89
2024/01/16 01:00:44;;;;;;;4.13;2.15;;;;;;;-1.00;100.00;100885.59;4936180;29;20106;-88
2024/01/16 01:05:49;;;;;;;2.10;1.88;;;;;;;-1.05;100.00;100885.44;4958860;23;20069;-88
2024/01/16 01:08:29;;;;;;;4.07;2.05;;;;;;;-1.12;100.00;100875.88;4955087;29;20358;-89
2024/01/16 01:11:14;;;;;;;2.78;1.90;;;;;;;-0.91;100.00;100902.88;4954442;29;20024;-88
2024/01/16 01:13:51;;;;;;;2.47;1.83;;;;;;;-0.97;100.00;100893.34;4953385;29;20114;-89
2024/01/16 01:19:48;;;;;;;;;;;;;;;;;;;;;
2024/01/16 01:25:08;;;;;;;4.30;2.60;;;;;;;-1.00;100.00;100883.94;4958840;29;20035;-89
2024/01/16 01:27:36;;;;;;;3.15;2.15;;;;;;;-1.06;100.00;100868.44;4958283;29;20035;-88
2024/01/16 01:30:17;;;;;;;5.57;2.60;;;;;;;-1.06;100.00;100865.88;4958380;29;20566;-89
2024/01/16 01:33:01;;;;;;;5.00;2.50;;;;;;;-0.90;100.00;100891.88;4958809;29;20384;-89
2024/01/16 01:35:29;;;;;;;6.57;2.72;;;;;;;-0.91;100.00;100885.03;4959881;29;20042;-88
2024/01/16 01:38:18;;;;;;;5.07;2.70;;;;;;;-0.90;100.00;100887.63;4958757;29;20023;-88
2024/01/16 01:41:02;;;;;;;3.30;2.40;;;;;;;-1.05;100.00;100864.22;4924825;29;20039;-88
2024/01/16 01:43:29;;;;;;;4.93;2.22;;;;;;;-1.07;100.00;100863.31;4959697;29;20036;-88
2024/01/16 01:46:30;;;;;;;4.97;2.30;;;;;;;-0.97;100.00;100885.72;4960456;29;20024;-88
2024/01/16 01:48:56;;;;;;;4.20;2.17;;;;;;;-1.06;100.00;100873.53;4960135;29;20395;-88
2024/01/16 01:51:30;;;;;;;5.00;2.28;;;;;;;-0.97;100.00;100885.72;4958136;29;20050;-89
2024/01/16 01:54:05;;;;;;;3.80;2.50;;;;;;;-0.94;100.00;100893.47;4958243;29;20083;-88
2024/01/16 01:56:34;;;;;;;3.30;2.10;;;;;;;-0.99;100.00;100882.25;4958337;29;20388;-88
2024/01/16 01:59:10;;;;;;;3.33;2.33;;;;;;;-0.95;100.00;100895.13;4957709;29;20124;-88
2024/01/16 02:01:49;;;;;;;;;;;;;;;-0.85;100.00;100905.66;4958382;29;20019;-88
2024/01/16 02:04:19;;;;;;;3.25;2.10;;;;;;;-0.96;100.00;100897.63;4965159;23;19926;-89
2024/01/16 02:06:45;;;;;;;3.72;2.20;;;;;;;-0.85;100.00;100914.16;4965046;23;20027;-88
2024/01/16 02:09:13;;;;;;;2.35;1.90;;;;;;;-0.86;100.00;100906.47;4958169;29;20034;-88
2024/01/16 02:11:39;;;;;;;3.42;2.33;;;;;;;-0.85;100.00;100911.59;4957554;29;20023;-89
2024/01/16 02:14:04;;;;;;;3.55;2.10;;;;;;;-0.87;100.00;100897.09;4958085;29;20432;-88
2024/01/16 02:16:37;;;;;;;4.30;2.42;;;;;;;-0.88;100.00;100896.19;4958318;29;20020;-88
2024/01/16 02:19:02;;;;;;;4.22;2.03;;;;;;;-0.83;100.00;100909.09;4958134;29;20064;-88
2024/01/16 02:21:29;;;;;;;5.38;2.10;;;;;;;-0.83;100.00;100911.63;4958090;29;20447;-88
2024/01/16 02:23:55;;;;;;;2.85;1.92;;;;;;;-0.83;100.00;100904.00;4957742;29;20031;-88
2024/01/16 02:29:09;;;;;;;2.45;1.80;;;;;;;-0.90;100.00;100884.22;4949689;28;20046;-88
2024/01/16 02:31:35;;;;;;;2.97;1.75;;;;;;;-0.85;100.00;100906.50;4956654;29;20027;-88
2024/01/16 02:34:01;;;;;;;3.55;1.90;;;;;;;-0.84;100.00;100912.44;4957003;29;20025;-88
2024/01/16 02:36:30;;;;;;;3.55;1.70;;;;;;;-0.85;100.00;100916.69;4957363;29;20063;-89
2024/01/16 02:38:56;;;;;;;3.10;1.80;;;;;;;-0.88;100.00;100918.28;4957387;29;20023;-88
2024/01/16 02:41:21;;;;;;;2.35;1.90;;;;;;;-0.91;100.00;100913.97;4956857;29;20034;-88
2024/01/16 02:43:47;;;;;;;3.72;1.90;;;;;;;-0.87;100.00;100928.50;4956977;29;20484;-88
2024/01/16 02:46:18;;;;;;;3.55;2.00;;;;;;;-0.94;100.00;100907.06;4957191;29;20031;-88
2024/01/16 02:48:43;;;;;;;2.55;2.17;;;;;;;-0.87;100.00;100918.31;4956293;29;20126;-88
2024/01/16 02:51:09;;;;;;;2.53;2.15;;;;;;;-0.89;100.00;100914.00;4957005;29;20507;-88
2024/01/16 02:53:34;;;;;;;4.75;2.30;;;;;;;-0.87;100.00;100915.75;5089530;23;20544;-87
2024/01/16 02:56:07;;;;;;;3.15;2.42;;;;;;;-0.85;100.00;100923.47;4937912;29;20111;-88
2024/01/16 02:58:32;;;;;;;3.55;2.20;;;;;;;-0.84;100.00;100932.84;4937514;29;20035;-88
2024/01/16 03:00:58;;;;;;;3.00;2.20;;;;;;;-0.87;100.00;100936.16;4937577;29;20034;-88
2024/01/16 03:03:26;;;;;;;4.35;2.10;;;;;;;-0.81;100.00;100931.28;4938009;29;20469;-88
2024/01/16 03:05:51;;;;;;;3.30;2.08;;;;;;;-0.87;100.00;100925.97;4937518;29;20035;-88
2024/01/16 03:08:17;;;;;;;3.05;2.10;;;;;;;-0.83;100.00;100926.91;4937498;29;20038;-88
2024/01/16 03:10:42;;;;;;;4.00;2.00;;;;;;;-0.86;100.00;100907.31;4942838;29;20023;-88
2024/01/16 03:13:08;;;;;;;3.28;1.80;;;;;;;-0.82;100.00;100921.00;4942245;29;20066;-88
2024/01/16 03:15:33;;;;;;;1.92;1.63;;;;;;;-0.85;100.00;100908.19;4937087;29;20465;-88
2024/01/16 03:17:59;;;;;;;1.92;1.50;;;;;;;-0.84;100.00;100913.31;4938027;29;20027;-88
2024/01/16 03:20:25;;;;;;;3.60;1.63;;;;;;;-0.90;100.00;100904.63;4937477;29;20028;-88
2024/01/16 03:22:50;;;;;;;1.83;1.60;;;;;;;-0.90;100.00;100913.09;4936710;29;20872;-88
2024/01/16 03:25:16;;;;;;;1.50;1.40;;;;;;;-0.89;100.00;100914.00;4937607;29;20083;-88
2024/01/16 03:27:42;;;;;;;1.50;1.20;;;;;;;-0.86;100.00;100916.66;4936751;29;20078;-88
2024/01/16 03:30:08;;;;;;;1.77;1.40;;;;;;;-0.89;100.00;100919.09;4936506;29;20027;-88
2024/01/16 03:32:35;;;;;;;1.45;1.23;;;;;;;-0.87;100.00;100930.22;4936620;29;20503;-88
2024/01/16 03:35:00;;;;;;;2.75;1.02;;;;;;;-0.85;100.00;100921.78;4937411;29;20051;-88
2024/01/16 03:37:26;;;;;;;0.85;0.82;;;;;;;-0.91;100.00;100908.88;4936728;29;20059;-87
2024/01/16 03:39:54;;;;;;;1.30;1.02;;;;;;;-0.88;100.00;100911.47;4937243;29;20107;-88
2024/01/16 03:42:26;;;;;;;1.05;0.95;;;;;;;-0.87;100.00;100910.66;4937445;29;20473;-89
2024/01/16 03:45:29;;;;;;;0.68;0.68;;;;;;;-0.82;100.00;100911.69;4936443;29;20788;-88
2024/01/16 03:48:19;;;;;;;1.38;0.85;;;;;;;-1.08;100.00;100870.09;4937399;29;20042;-89
2024/01/16 03:50:54;;;;;;;1.17;1.00;;;;;;;-0.93;100.00;100893.50;4935844;29;20075;-88
2024/01/16 03:54:04;;;;;;;1.00;1.00;;;;;;;-0.97;100.00;100876.41;4944691;23;20056;-88
2024/01/16 03:56:31;;;;;;;1.20;1.00;;;;;;;-1.01;100.00;100869.47;4843341;29;20062;-88
2024/01/16 03:59:31;;;;;;;1.17;1.08;;;;;;;-1.02;100.00;100871.97;4841933;29;20034;-88
2024/01/16 04:02:30;;;;;;;1.23;1.08;;;;;;;-0.76;100.00;100911.03;4948976;29;20028;-88
2024/01/16 04:05:21;;;;;;;1.40;1.30;;;;;;;-0.94;100.00;100868.84;4955091;29;20484;-88
2024/01/16 04:08:00;;;;;;;;;;;;;;;;;;;;;
2024/01/16 04:10:28;;;;;;;2.17;1.70;;;;;;;-0.86;100.00;100880.97;4934717;29;20058;-89
2024/01/16 04:13:40;;;;;;;2.38;1.70;;;;;;;-0.77;100.00;100894.00;4954850;29;20562;-89
2024/01/16 04:16:17;;;;;;;4.43;2.00;;;;;;;-0.98;100.00;100856.84;4956181;29;20039;-89
2024/01/16 04:18:46;;;;;;;4.63;2.60;;;;;;;-0.93;100.00;100872.25;4954789;29;20058;-89
2024/01/16 04:24:32;;;;;;;4.95;2.50;;;;;;;-0.91;100.00;100878.28;4956337;29;20090;-88
2024/01/16 04:26:59;;;;;;;3.50;2.40;;;;;;;-1.13;100.00;100847.03;4955358;29;20472;-89
2024/01/16 04:29:35;;;;;;;5.55;2.70;;;;;;;-1.18;100.00;100840.03;4956302;29;20023;-89
2024/01/16 04:32:04;;;;;;;4.70;2.78;;;;;;;-1.04;100.00;100860.88;4956007;29;20036;-87
2024/01/16 04:34:47;;;;;;;3.47;2.40;;;;;;;-1.09;100.00;100855.63;4955963;29;20097;-89
2024/01/16 04:37:30;;;;;;;3.60;2.40;;;;;;;-1.01;100.00;100874.56;4955986;29;20031;-88
2024/01/16 04:40:05;;;;;;;2.67;2.15;;;;;;;-1.18;100.00;100851.09;4946765;23;20079;-89
2024/01/16 04:42:43;;;;;;;3.63;2.20;;;;;;;-1.22;100.00;100836.50;4936679;29;20067;-89
2024/01/16 04:45:11;;;;;;;3.17;2.40;;;;;;;-1.29;100.00;100832.88;4936826;29;20023;-88
2024/01/16 04:47:39;;;;;;;3.35;2.30;;;;;;;-1.22;100.00;100849.25;4935754;29;20046;-88
2024/01/16 04:50:05;;;;;;;4.85;2.78;;;;;;;-1.18;100.00;100848.53;4936714;29;20078;-89
2024/01/16 04:52:43;;;;;;;4.38;2.80;;;;;;;-1.29;100.00;100837.97;4936212;29;20031;-89
2024/01/16 04:55:08;;;;;;;5.55;3.42;;;;;;;-1.16;100.00;100868.94;4939515;29;20027;-89
2024/01/16 04:57:34;;;;;;;6.50;3.58;;;;;;;-1.17;100.00;100869.75;4940071;29;20520;-89
2024/01/16 05:00:09;;;;;;;7.15;3.70;;;;;;;-1.37;100.00;100843.66;4939427;29;20032;-89
2024/01/16 05:02:34;;;;;;;7.25;3.45;;;;;;;-1.35;100.00;100844.59;4939055;29;20031;-89
2024/01/16 05:05:05;;;;;;;8.15;3.88;;;;;;;-1.42;100.00;100835.88;4939549;29;20473;-89
2024/01/16 05:07:30;;;;;;;7.63;3.90;;;;;;;-1.23;100.00;100867.03;4940070;29;20032;-88
2024/01/16 05:10:33;;;;;;;7.63;3.58;;;;;;;-1.25;100.00;100869.53;4939757;29;20393;-89
2024/01/16 05:13:38;;;;;;;7.38;3.67;;;;;;;-1.48;100.00;100825.47;4940265;29;20062;-89
2024/01/16 05:16:13;;;;;;;7.28;3.85;;;;;;;-1.46;100.00;100827.25;4939994;29;20031;-89
2024/01/16 05:19:04;;;;;;;7.60;3.42;;;;;;;-1.49;100.00;100816.97;4939919;29;20424;-89
2024/01/16 05:21:32;;;;;;;6.57;3.40;;;;;;;-1.47;100.00;100817.91;4909117;29;20095;-89
2024/01/16 05:24:15;;;;;;;5.68;3.40;;;;;;;-1.35;100.00;100837.78;4939871;29;20024;-89
2024/01/16 05:26:42;;;;;;;6.60;3.58;;;;;;;-1.47;100.00;100822.09;4939726;29;20036;-89
2024/01/16 05:29:11;;;;;;;8.65;3.83;;;;;;;-1.32;100.00;100850.63;4946817;23;20048;-89
2024/01/16 05:31:46;;;;;;;7.70;3.40;;;;;;;-1.31;100.00;100854.91;4939522;29;20034;-89
2024/01/16 05:34:11;;;;;;;8.55;3.55;;;;;;;-1.31;100.00;100846.41;4939550;29;20380;-89
2024/01/16 05:36:37;;;;;;;5.55;3.40;;;;;;;-1.34;100.00;100843.75;4939203;29;20034;-89
2024/01/16 05:39:02;;;;;;;5.28;3.15;;;;;;;-1.32;100.00;100844.66;4939363;29;20119;-89
2024/01/16 05:41:33;;;;;;;5.35;3.20;;;;;;;-1.34;100.00;100843.75;4939669;29;20067;-89
2024/01/16 05:43:58;;;;;;;7.95;3.35;;;;;;;-1.38;100.00;100839.38;4962656;23;20138;-89
2024/01/16 05:46:26;;;;;;;5.18;3.45;;;;;;;-1.36;100.00;100842.84;4939235;29;20103;-89
2024/01/16 05:48:51;;;;;;;6.63;3.05;;;;;;;-1.45;100.00;100828.13;4939127;29;20111;-89
2024/01/16 05:51:16;;;;;;;4.82;3.03;;;;;;;-1.43;100.00;100829.91;4939066;29;20464;-89
2024/01/16 05:53:42;;;;;;;5.15;3.30;;;;;;;-1.38;100.00;100831.75;4938965;29;20032;-89
2024/01/16 05:56:07;;;;;;;4.30;2.90;;;;;;;-1.46;100.00;100823.84;4960362;23;20051;-89
2024/01/16 05:58:38;;;;;;;5.50;2.95;;;;;;;-1.46;100.00;100827.25;4958319;29;20024;-88
2024/01/16 06:01:04;;;;;;;4.72;2.72;;;;;;;-1.47;100.00;100827.19;4958432;29;20035;-88
2024/01/16 06:03:29;;;;;;;4.38;2.75;;;;;;;-1.50;100.00;100829.63;4958042;28;20431;-87
2024/01/16 06:05:54;;;;;;;5.35;2.97;;;;;;;-1.54;100.00;100823.56;4958152;28;20059;-88
2024/01/16 06:08:44;;;;;;;3.97;2.85;;;;;;;-1.53;100.00;100827.84;4966024;23;20063;-88
2024/01/16 06:11:10;;;;;;;7.38;3.30;;;;;;;-1.64;100.00;100819.88;4957544;29;20027;-87
2024/01/16 06:13:44;;;;;;;6.43;3.13;;;;;;;-1.76;100.00;100804.19;4957936;29;20038;-88
2024/01/16 06:16:09;;;;;;;5.78;2.88;;;;;;;-1.63;100.00;100830.91;4958223;29;20023;-89
2024/01/16 06:18:39;;;;;;;4.85;3.00;;;;;;;-1.70;100.00;100819.66;4958235;29;20074;-88
2024/01/16 06:21:04;;;;;;;6.00;2.90;;;;;;;-1.67;100.00;100817.22;4958087;29;20029;-89
2024/01/16 06:27:36;;;;;;;5.65;2.90;;;;;;;-1.67;100.00;100819.75;5135746;23;20086;-89
2024/01/16 06:30:19;;;;;;;4.78;3.03;;;;;;;-1.91;100.00;100784.13;4981303;23;20090;-88
2024/01/16 06:32:54;;;;;;;5.90;3.03;;;;;;;-1.90;100.00;100794.38;4957527;29;20042;-89
2024/01/16 06:35:19;;;;;;;5.97;2.70;;;;;;;-1.77;100.00;100812.63;4957690;29;20035;-88
2024/01/16 06:38:01;;;;;;;5.30;3.00;;;;;;;-1.94;100.00;100799.31;4957554;29;20058;-88
2024/01/16 06:42:55;;;;;;;6.03;2.70;;;;;;;-1.74;100.00;100822.88;4936589;29;20157;-89
2024/01/16 06:45:22;;;;;;;6.88;2.85;;;;;;;-1.83;100.00;100817.47;4938390;29;20040;-88
2024/01/16 06:47:47;;;;;;;7.57;3.10;;;;;;;-1.77;100.00;100827.88;4937600;29;20593;-90
2024/01/16 06:50:13;;;;;;;6.70;2.95;;;;;;;-1.78;100.00;100841.44;4938208;29;20047;-87
2024/01/16 06:52:39;;;;;;;4.85;2.80;;;;;;;-1.77;100.00;100840.63;4933135;29;20083;-90
2024/01/16 06:55:04;;;;;;;4.43;2.70;;;;;;;-1.83;100.00;100838.72;4938843;29;20070;-91
2024/01/16 06:57:30;;;;;;;4.22;2.60;;;;;;;-1.83;100.00;100841.25;4938424;29;20055;-89
2024/01/16 06:59:55;;;;;;;7.15;3.22;;;;;;;-1.86;100.00;100838.59;4938422;29;20385;-94
2024/01/16 07:02:20;;;;;;;7.68;3.40;;;;;;;-1.90;100.00;100831.66;4959629;23;20090;-91
2024/01/16 07:04:45;;;;;;;5.88;3.10;;;;;;;-1.90;100.00;100837.63;4957190;29;20031;-90
2024/01/16 07:07:11;;;;;;;5.85;3.15;;;;;;;-1.93;100.00;100834.13;4957052;29;20035;-90
2024/01/16 07:09:36;;;;;;;7.28;3.28;;;;;;;-1.91;100.00;100846.06;4957116;29;20023;-89
2024/01/16 07:12:03;;;;;;;5.60;3.08;;;;;;;-1.96;100.00;100841.63;4956489;29;20020;-89
2024/01/16 07:14:36;;;;;;;6.53;3.13;;;;;;;-1.92;100.00;100854.50;4956178;29;20031;-90
2024/01/16 07:17:07;;;;;;;7.35;3.20;;;;;;;-1.93;100.00;100854.47;4956409;28;20036;-89
2024/01/16 07:26:01;;;;;;;5.82;2.90;;;;;;;-1.88;100.00;100866.53;4958920;29;20117;-91
2024/01/16 07:34:38;;;;;;;6.25;3.20;;;;;;;-2.03;100.00;100846.47;5223446;23;20129;-87
2024/01/16 07:43:35;;;;;;;5.60;2.85;;;;;;;-2.12;100.00;100838.53;4917782;29;20050;-88
2024/01/16 07:46:45;;;;;;;5.50;3.08;;;;;;;-2.17;100.00;100824.78;4918151;29;20112;-88
2024/01/16 08:16:52;;;;;;;4.63;2.70;;;;;;;-1.87;100.00;100890.28;4915833;29;20520;-86
2024/01/16 09:16:17;;;;;;;4.85;3.20;;;;;;;-1.58;100.00;100893.88;4958137;29;20039;-87
2024/01/16 09:34:30;;;;;;;5.03;3.00;;;;;;;-1.28;100.00;100883.00;5493390;23;20059;-88
2024/01/16 09:37:51;;;;;;;4.75;2.83;;;;;;;-1.19;100.00;100879.06;4937123;29;20412;-87
2024/01/16 09:50:30;;;;;;;9.18;3.47;;;;;;;-1.30;100.00;100849.00;4938094;29;20114;-88
2024/01/16 09:53:06;;;;;;;6.10;2.97;;;;;;;-1.17;100.00;100875.75;4938586;29;20110;-87
2024/01/16 10:20:53;;;;;;;8.38;3.85;;;;;;;-1.03;100.00;100822.69;5009714;23;20054;-87
2024/01/16 10:23:48;;;;;;;8.70;3.67;;;;;;;-0.74;100.00;100860.97;4996009;28;20035;-86
2024/01/16 10:27:03;;;;;;;7.05;3.70;;;;;;;-0.65;100.00;100850.19;4994304;28;20030;-86
2024/01/16 10:33:16;;;;;;;6.45;3.20;;;;;;;-0.36;100.00;100852.75;4972766;28;20058;-86
2024/01/16 10:39:47;;;;;;;6.78;3.25;;;;;;;-0.20;100.00;100837.06;4974861;28;20033;-87
2024/01/16 10:42:22;;;;;;;7.45;3.55;;;;;;;-0.18;100.00;100824.38;4974541;28;20058;-87
2024/01/16 10:45:06;;;;;;;6.05;3.30;;;;;;;0.01;100.00;100832.53;4974340;28;20023;-86
2024/01/16 10:51:03;;;;;;;9.43;3.90;;;;;;;0.04;100.00;100819.88;4975040;28;20522;-86
2024/01/16 10:53:46;;;;;;;8.18;3.63;;;;;;;0.07;100.00;100828.47;4975015;28;20423;-86
2024/01/16 10:56:20;;;;;;;8.50;3.97;;;;;;;0.08;100.00;100821.66;4975923;28;20027;-86
2024/01/16 11:10:44;;;;;;;7.07;3.80;;;;;;;0.50;100.00;100825.31;5244616;23;20058;-86
2024/01/16 11:13:11;;;;;;;8.40;4.05;;;;;;;0.46;100.00;100819.28;4936186;29;20048;-87
2024/01/16 11:15:40;;;;;;;8.85;4.10;;;;;;;0.50;100.00;100815.97;4936431;29;20494;-86
2024/01/16 11:18:09;;;;;;;7.63;3.70;;;;;;;0.49;100.00;100808.25;4936560;29;20361;-87
2024/01/16 11:20:36;;;;;;;8.32;3.80;;;;;;;0.57;100.00;100809.31;4935582;29;20047;-87
2024/01/16 11:23:02;;;;;;;8.57;3.83;;;;;;;0.59;100.00;100806.00;4936940;29;20036;-86
2024/01/16 11:25:34;;;;;;;7.53;3.75;;;;;;;0.61;100.00;100806.03;4936694;29;20377;-86
2024/01/16 11:28:13;;;;;;;6.80;4.05;;;;;;;0.59;100.00;100807.66;4935790;29;20036;-87
2024/01/16 11:30:39;;;;;;;7.32;3.72;;;;;;;0.60;100.00;100807.72;4935775;29;20038;-86
2024/01/16 11:33:05;;;;;;;7.83;3.70;;;;;;;0.70;100.00;100813.06;5001912;23;20079;-87
2024/01/16 11:35:36;;;;;;;8.25;3.90;;;;;;;0.66;100.00;100807.00;4935874;29;20044;-87
2024/01/16 11:38:16;;;;;;;10.07;4.15;;;;;;;0.71;100.00;100815.63;4936205;29;20063;-86
2024/01/16 11:40:41;;;;;;;7.15;3.42;;;;;;;0.76;100.00;100808.09;4936383;29;20075;-87
2024/01/16 11:43:32;;;;;;;5.90;3.20;;;;;;;0.86;100.00;100814.28;4935571;29;20021;-87
2024/01/16 11:52:12;;;;;;;8.90;3.60;;;;;;;0.85;100.00;100787.00;4877978;29;20093;-87
2024/01/16 11:54:50;;;;;;;8.25;3.78;;;;;;;0.70;100.00;100762.81;4845846;29;20136;-86
2024/01/16 12:03:26;;;;;;;8.32;4.00;;;;;;;1.01;100.00;100798.44;4941396;23;20086;-86
2024/01/16 12:06:16;;;;;;;7.75;3.63;;;;;;;1.04;100.00;100798.53;4936047;29;20063;-84
2024/01/16 12:18:03;;;;;;;7.10;3.40;;;;;;;1.03;98.77;100763.56;5185648;23;20612;-85
2024/01/16 12:23:50;;;;;;;7.20;3.90;;;;;;;0.94;98.94;100758.25;4954573;29;20455;-85
2024/01/16 12:26:33;;;;;;;7.95;3.50;;;;;;;0.85;100.00;100725.69;4954387;29;20031;-85
2024/01/16 12:29:53;;;;;;;5.13;2.95;;;;;;;0.90;100.00;100724.13;4955065;29;20047;-85
2024/01/16 12:33:01;;;;;;;6.07;3.30;;;;;;;1.19;100.00;100762.22;4867926;29;20143;-88
2024/01/16 12:35:30;;;;;;;9.90;4.07;;;;;;;0.99;100.00;100729.41;4921651;29;20373;-85
2024/01/16 12:38:03;;;;;;;7.85;3.80;;;;;;;1.15;99.77;100763.84;4953522;29;20027;-85
2024/01/16 12:40:29;;;;;;;7.25;3.55;;;;;;;1.11;100.00;100762.03;4954943;29;20073;-84
2024/01/16 12:42:55;;;;;;;6.97;3.38;;;;;;;1.13;98.44;100760.38;4954632;29;20102;-85
2024/01/16 12:45:25;;;;;;;9.52;3.97;;;;;;;1.08;97.62;100759.41;4953993;29;20027;-85
2024/01/16 12:47:54;;;;;;;8.07;3.83;;;;;;;1.08;97.83;100764.53;4954459;29;20069;-86
2024/01/16 12:50:23;;;;;;;7.45;3.75;;;;;;;1.01;96.27;100755.88;4951370;29;20035;-85
2024/01/16 12:52:50;;;;;;;7.85;3.80;;;;;;;1.03;96.69;100750.78;4953642;29;20476;-85
2024/01/16 12:55:16;;;;;;;9.20;3.90;;;;;;;1.01;95.84;100748.22;4954467;29;20035;-84
2024/01/16 12:57:45;;;;;;;7.78;3.50;;;;;;;1.02;96.25;100743.97;4954259;29;20117;-86
2024/01/16 13:00:22;;;;;;;6.82;3.10;;;;;;;1.05;94.31;100742.31;4953197;29;20465;-85
2024/01/16 13:02:52;;;;;;;5.07;2.92;;;;;;;1.11;99.10;100743.31;4954215;29;20411;-84
2024/01/16 13:05:18;;;;;;;8.00;3.33;;;;;;;1.15;96.69;100738.28;4954972;29;20031;-85
2024/01/16 13:08:18;;;;;;;6.70;3.25;;;;;;;1.19;97.90;100736.66;5663832;23;20020;-85
2024/01/16 13:13:21;;;;;;;8.57;3.40;;;;;;;1.23;97.42;100730.78;5126852;23;20419;-85
2024/01/16 13:15:47;;;;;;;8.52;3.60;;;;;;;1.31;99.01;100729.25;4956998;29;20027;-85
2024/01/16 13:18:23;;;;;;;7.25;3.42;;;;;;;1.31;95.40;100726.69;4957864;29;20038;-84
2024/01/16 13:20:56;;;;;;;7.15;3.20;;;;;;;1.31;97.88;100721.56;4957349;29;20028;-85
2024/01/16 13:23:23;;;;;;;7.55;3.28;;;;;;;1.32;96.68;100723.31;4958133;29;20167;-85
2024/01/16 13:25:49;;;;;;;7.30;3.40;;;;;;;1.29;94.92;100723.22;4957590;29;20019;-85
2024/01/16 13:28:16;;;;;;;7.10;3.10;;;;;;;1.29;95.05;100730.91;4956697;29;20031;-84
2024/01/16 13:30:45;;;;;;;;;;;;;;;1.33;97.62;100731.81;4957922;29;20483;-83
2024/01/16 13:33:13;;;;;;;4.97;2.78;;;;;;;1.37;97.47;100726.81;4957079;29;19914;-85
2024/01/16 13:35:49;;;;;;;5.47;2.70;;;;;;;1.36;97.17;100729.34;4956644;29;20023;-83
2024/01/16 13:38:18;;;;;;;3.65;2.70;;;;;;;1.39;95.61;100735.38;4957725;28;20031;-84
2024/01/16 13:40:44;;;;;;;5.10;2.80;;;;;;;1.39;95.34;100732.81;4956698;29;20027;-84
2024/01/16 13:43:13;;;;;;;6.97;3.00;;;;;;;1.29;96.55;100720.69;4957020;29;20501;-84
2024/01/16 13:45:39;;;;;;;4.93;2.80;;;;;;;1.19;96.74;100717.06;4957284;28;20069;-84
2024/01/16 13:48:09;;;;;;;6.50;3.13;;;;;;;1.10;93.39;100708.34;4971343;23;20065;-85
2024/01/16 13:50:34;;;;;;;5.43;2.90;;;;;;;1.04;95.45;100703.97;4957419;29;20448;-84
2024/01/16 13:53:03;;;;;;;6.22;2.78;;;;;;;1.07;98.73;100696.34;4957541;29;20051;-84
2024/01/16 13:55:31;;;;;;;5.13;2.60;;;;;;;1.05;97.71;100698.88;4956616;29;20041;-84
2024/01/16 13:57:58;;;;;;;6.68;2.70;;;;;;;0.98;95.63;100704.69;4957326;29;20039;-84
2024/01/16 14:00:26;;;;;;;6.43;2.78;;;;;;;0.95;96.07;100699.50;4956991;29;20024;-85
2024/01/16 14:02:52;;;;;;;5.45;2.83;;;;;;;0.97;96.62;100700.41;4956148;29;20082;-84
2024/01/16 14:05:18;;;;;;;6.45;2.95;;;;;;;1.00;96.00;100700.47;4956915;29;20057;-85
2024/01/16 14:07:50;;;;;;;3.60;2.70;;;;;;;0.84;97.56;100683.97;4956751;29;20034;-84
2024/01/16 14:11:08;;;;;;;4.55;2.65;;;;;;;0.90;97.85;100696.84;5310474;23;20063;-84
2024/01/16 14:14:05;;;;;;;3.17;2.30;;;;;;;0.68;99.99;100658.88;4937416;29;20498;-84
2024/01/16 14:16:49;;;;;;;4.18;2.40;;;;;;;0.66;100.00;100663.97;4934393;29;20035;-84
2024/01/16 14:19:58;;;;;;;;;;;;;;;;;;;;;
2024/01/16 14:25:25;;;;;;;6.07;2.90;;;;;;;0.45;99.81;100652.41;4897600;29;20092;-85
2024/01/16 14:28:12;;;;;;;4.05;2.70;;;;;;;0.61;99.10;100691.09;4897261;29;20075;-84
2024/01/16 14:30:48;;;;;;;3.78;2.50;;;;;;;0.45;99.98;100656.66;4896517;29;20037;-84
2024/01/16 14:33:17;;;;;;;5.05;2.80;;;;;;;0.42;99.41;100660.03;4897684;29;20040;-85
2024/01/16 14:36:04;;;;;;;5.45;2.75;;;;;;;0.46;97.62;100676.28;4896855;29;20037;-86
2024/01/16 14:38:38;;;;;;;5.60;2.95;;;;;;;0.29;99.47;100658.84;4877845;29;20051;-85
2024/01/16 14:41:16;;;;;;;5.78;3.03;;;;;;;0.17;100.00;100639.84;4897132;29;20480;-85
2024/01/16 14:43:56;;;;;;;6.80;3.30;;;;;;;0.04;98.52;100637.00;4896348;29;20033;-84
2024/01/16 14:46:21;;;;;;;6.63;3.13;;;;;;;0.22;97.56;100669.75;4896315;29;20424;-85
2024/01/16 14:48:46;;;;;;;7.53;3.70;;;;;;;0.18;98.81;100670.50;4953927;29;20027;-86
2024/01/16 14:51:12;;;;;;;6.25;3.10;;;;;;;0.19;100.00;100659.47;4955037;29;20034;-85
2024/01/16 14:53:37;;;;;;;4.45;3.03;;;;;;;0.13;100.00;100654.22;4956022;29;20031;-85
2024/01/16 14:56:03;;;;;;;5.05;2.83;;;;;;;0.10;99.92;100647.38;4954281;29;20471;-86
2024/01/16 14:58:30;;;;;;;5.32;2.90;;;;;;;0.03;99.91;100645.47;4955669;29;20097;-86
2024/01/16 15:00:58;;;;;;;5.78;3.05;;;;;;;0.04;99.58;100649.75;4955969;29;20027;-86
2024/01/16 15:05:57;;;;;;;5.28;2.80;;;;;;;-0.04;99.23;100636.78;4953019;29;20081;-86
2024/01/16 15:10:47;;;;;;;5.97;3.25;;;;;;;-0.09;97.39;100635.84;4971410;23;20059;-86
2024/01/16 15:13:13;;;;;;;5.43;3.00;;;;;;;-0.10;100.00;100636.66;4954529;29;20042;-85
2024/01/16 15:15:38;;;;;;;4.47;2.80;;;;;;;-0.13;100.00;100635.72;4955239;29;20046;-86
2024/01/16 15:18:04;;;;;;;5.40;3.00;;;;;;;-0.10;99.34;100640.88;4955173;29;20047;-86
2024/01/16 15:20:29;;;;;;;5.40;2.90;;;;;;;-0.12;99.20;100645.09;4955094;29;20029;-86
2024/01/16 15:22:54;;;;;;;8.50;3.30;;;;;;;-0.20;100.00;100635.56;4956105;29;20035;-85
2024/01/16 15:25:24;;;;;;;7.35;3.10;;;;;;;-0.19;100.00;100638.97;4955498;29;20391;-86
2024/01/16 15:27:53;;;;;;;6.75;3.13;;;;;;;-0.27;100.00;100633.69;4954718;29;20031;-86
2024/01/16 15:30:31;;;;;;;4.47;2.83;;;;;;;-0.28;100.00;100631.09;4955464;29;20054;-86
2024/01/16 15:32:59;;;;;;;5.22;2.90;;;;;;;-0.27;100.00;100640.44;4955125;29;20534;-86
2024/01/16 15:35:24;;;;;;;5.55;2.80;;;;;;;-0.29;100.00;100630.22;4954645;29;20038;-86
2024/01/16 15:37:52;;;;;;;6.85;2.72;;;;;;;-0.35;100.00;100627.53;4954610;28;20032;-85
2024/01/16 15:40:17;;;;;;;5.15;2.70;;;;;;;-0.39;100.00;100629.09;4954786;29;20023;-85
2024/01/16 15:42:42;;;;;;;5.53;2.85;;;;;;;-0.43;100.00;100634.97;4955437;29;20030;-85
2024/01/16 15:45:11;;;;;;;6.32;3.05;;;;;;;-0.44;100.00;100647.66;4954541;29;20027;-86